createdAt,value
2023-07-18T00:00:49.180Z,17.45
2023-07-18T00:02:49.484Z,17.39
2023-07-18T00:04:49.742Z,17.41
2023-07-18T00:06:50.059Z,17.38
2023-07-18T00:08:50.337Z,17.41
2023-07-18T00:10:50.625Z,17.39
2023-07-18T00:12:50.904Z,17.44
2023-07-18T00:14:51.204Z,17.44
2023-07-18T00:16:51.573Z,17.48
2023-07-18T00:18:51.868Z,17.46
2023-07-18T00:20:52.161Z,17.51
2023-07-18T00:22:52.499Z,17.48
2023-07-18T00:24:52.797Z,17.45
2023-07-18T00:26:53.096Z,17.42
2023-07-18T00:28:53.392Z,17.36
2023-07-18T00:30:53.669Z,17.36
2023-07-18T00:32:54.096Z,17.30
2023-07-18T00:34:54.412Z,17.23
2023-07-18T00:36:54.702Z,17.16
2023-07-18T00:38:54.998Z,17.14
2023-07-18T00:40:55.258Z,17.16
2023-07-18T00:42:55.584Z,17.22
2023-07-18T00:44:55.849Z,17.20
2023-07-18T00:46:56.149Z,17.23
2023-07-18T00:48:56.446Z,17.24
2023-07-18T00:50:56.710Z,17.27
2023-07-18T00:52:57.006Z,17.31
2023-07-18T00:54:57.305Z,17.31
2023-07-18T00:56:57.579Z,17.34
2023-07-18T00:58:57.856Z,17.29
2023-07-18T01:00:58.182Z,17.30
2023-07-18T01:02:58.612Z,17.33
2023-07-18T01:04:58.940Z,17.38
2023-07-18T01:06:59.282Z,17.38
2023-07-18T01:08:59.532Z,17.41
2023-07-18T01:10:59.834Z,17.45
2023-07-18T01:13:00.125Z,17.51
2023-07-18T01:15:00.421Z,17.56
2023-07-18T01:17:00.679Z,17.59
2023-07-18T01:19:00.968Z,17.60
2023-07-18T01:21:01.252Z,17.60
2023-07-18T01:23:01.732Z,17.54
2023-07-18T01:25:02.072Z,17.48
2023-07-18T01:27:02.341Z,17.42
2023-07-18T01:29:02.642Z,17.41
2023-07-18T01:31:02.987Z,17.36
2023-07-18T01:33:03.384Z,17.34
2023-07-18T01:35:03.680Z,17.39
2023-07-18T01:37:03.943Z,17.36
2023-07-18T01:39:04.232Z,17.38
2023-07-18T01:41:04.564Z,17.38
2023-07-18T01:43:04.845Z,17.34
2023-07-18T01:45:05.180Z,17.34
2023-07-18T01:47:05.466Z,17.38
2023-07-18T01:49:05.754Z,17.41
2023-07-18T01:51:06.042Z,17.46
2023-07-18T01:53:06.338Z,17.46
2023-07-18T01:55:06.656Z,17.49
2023-07-18T01:57:06.970Z,17.51
2023-07-18T01:59:07.233Z,17.48
2023-07-18T02:01:07.545Z,17.48
2023-07-18T02:03:07.850Z,17.49
2023-07-18T02:05:08.121Z,17.51
2023-07-18T02:07:09.326Z,17.45
2023-07-18T02:09:10.102Z,17.45
2023-07-18T02:11:10.389Z,17.45
2023-07-18T02:13:10.698Z,17.41
2023-07-18T02:15:10.996Z,17.41
2023-07-18T02:17:11.376Z,17.38
2023-07-18T02:19:16.447Z,17.31
2023-07-18T02:21:16.985Z,17.29
2023-07-18T02:23:17.469Z,17.26
2023-07-18T02:25:17.736Z,17.23
2023-07-18T02:27:18.055Z,17.20
2023-07-18T02:29:18.352Z,17.14
2023-07-18T02:31:19.054Z,17.12
2023-07-18T02:33:19.626Z,17.09
2023-07-18T02:35:20.332Z,17.06
2023-07-18T02:37:20.652Z,17.02
2023-07-18T02:39:20.965Z,16.96
2023-07-18T02:41:21.388Z,16.94
2023-07-18T02:43:21.761Z,16.90
2023-07-18T02:45:22.033Z,16.86
2023-07-18T02:47:22.342Z,16.81
2023-07-18T02:49:22.612Z,16.78
2023-07-18T02:51:22.905Z,16.71
2023-07-18T02:53:23.204Z,16.69
2023-07-18T02:55:23.482Z,16.66
2023-07-18T02:57:23.792Z,16.68
2023-07-18T02:59:24.098Z,16.66
2023-07-18T03:01:24.471Z,16.66
2023-07-18T03:03:25.012Z,16.61
2023-07-18T03:05:25.344Z,16.60
2023-07-18T03:07:25.646Z,16.58
2023-07-18T03:09:25.944Z,16.56
2023-07-18T03:11:26.242Z,16.51
2023-07-18T03:13:26.774Z,16.53
2023-07-18T03:15:27.051Z,16.53
2023-07-18T03:17:27.363Z,16.50
2023-07-18T03:19:27.632Z,16.47
2023-07-18T03:21:27.907Z,16.43
2023-07-18T03:23:28.179Z,16.35
2023-07-18T03:25:28.472Z,16.28
2023-07-18T03:27:28.733Z,16.16
2023-07-18T03:29:29.011Z,16.09
2023-07-18T03:31:29.376Z,16.04
2023-07-18T03:33:29.677Z,15.94
2023-07-18T03:35:29.981Z,15.84
2023-07-18T03:37:30.233Z,15.75
2023-07-18T03:39:30.533Z,15.59
2023-07-18T03:41:30.828Z,15.49
2023-07-18T03:43:31.095Z,15.49
2023-07-18T03:45:31.364Z,15.46
2023-07-18T03:47:31.672Z,15.51
2023-07-18T03:49:31.951Z,15.57
2023-07-18T03:51:34.524Z,15.62
2023-07-18T03:53:37.396Z,15.64
2023-07-18T03:55:37.693Z,15.65
2023-07-18T03:57:37.972Z,15.62
2023-07-18T03:59:38.252Z,15.62
2023-07-18T04:01:38.551Z,15.58
2023-07-18T04:03:38.894Z,15.61
2023-07-18T04:05:39.196Z,15.59
2023-07-18T04:07:39.489Z,15.64
2023-07-18T04:09:39.770Z,15.64
2023-07-18T04:11:40.034Z,15.62
2023-07-18T04:13:40.338Z,15.67
2023-07-18T04:15:40.629Z,15.70
2023-07-18T04:17:41.021Z,15.64
2023-07-18T04:19:41.308Z,15.70
2023-07-18T04:21:41.629Z,15.72
2023-07-18T04:23:41.889Z,15.64
2023-07-18T04:25:42.173Z,15.75
2023-07-18T04:27:42.456Z,15.82
2023-07-18T04:29:42.731Z,15.88
2023-07-18T04:31:43.066Z,15.88
2023-07-18T04:33:43.360Z,15.95
2023-07-18T04:35:43.601Z,15.95
2023-07-18T04:37:43.871Z,16.01
2023-07-18T04:39:44.203Z,16.12
2023-07-18T04:41:54.050Z,16.26
2023-07-18T04:43:49.615Z,16.39
2023-07-18T04:45:50.048Z,16.46
2023-07-18T04:47:50.341Z,16.49
2023-07-18T04:49:50.676Z,16.50
2023-07-18T04:51:50.899Z,16.49
2023-07-18T04:53:51.212Z,16.56
2023-07-18T04:55:51.495Z,16.56
2023-07-18T04:57:51.768Z,16.58
2023-07-18T04:59:52.061Z,16.68
2023-07-18T05:01:52.371Z,16.74
2023-07-18T05:03:57.713Z,16.74
2023-07-18T05:05:57.876Z,16.81
2023-07-18T05:07:58.123Z,16.81
2023-07-18T05:09:58.418Z,16.83
2023-07-18T05:11:58.718Z,16.91
2023-07-18T05:13:58.994Z,16.97
2023-07-18T05:15:59.310Z,17.05
2023-07-18T05:17:59.629Z,17.12
2023-07-18T05:19:59.925Z,17.22
2023-07-18T05:22:00.190Z,17.29
2023-07-18T05:24:00.473Z,17.34
2023-07-18T05:26:00.795Z,17.39
2023-07-18T05:28:01.055Z,17.46
2023-07-18T05:30:01.314Z,17.51
2023-07-18T05:32:01.672Z,17.57
2023-07-18T05:34:01.968Z,17.63
2023-07-18T05:36:02.243Z,17.72
2023-07-18T05:38:02.519Z,17.80
2023-07-18T05:40:02.808Z,17.87
2023-07-18T05:42:03.118Z,17.95
2023-07-18T05:44:03.405Z,18.01
2023-07-18T05:46:03.725Z,18.00
2023-07-18T05:48:04.047Z,18.00
2023-07-18T05:50:04.368Z,18.03
2023-07-18T05:52:04.647Z,18.07
2023-07-18T05:54:04.968Z,18.10
2023-07-18T05:56:05.266Z,18.10
2023-07-18T05:58:05.536Z,18.05
2023-07-18T06:00:05.802Z,18.15
2023-07-18T06:02:06.082Z,18.23
2023-07-18T06:04:06.414Z,18.35
2023-07-18T06:06:06.720Z,18.52
2023-07-18T06:08:07.024Z,18.66
2023-07-18T06:10:07.269Z,18.73
2023-07-18T06:12:07.552Z,18.68
2023-07-18T06:14:07.873Z,18.77
2023-07-18T06:16:08.220Z,18.84
2023-07-18T06:18:08.448Z,18.96
2023-07-18T06:20:08.775Z,19.07
2023-07-18T06:22:09.048Z,19.09
2023-07-18T06:24:18.978Z,19.11
2023-07-18T06:26:14.523Z,19.14
2023-07-18T06:28:14.825Z,19.19
2023-07-18T06:30:15.132Z,19.30
2023-07-18T06:32:15.378Z,19.33
2023-07-18T06:34:15.692Z,19.49
2023-07-18T06:36:15.970Z,19.67
2023-07-18T06:38:16.236Z,19.81
2023-07-18T06:40:16.490Z,19.85
2023-07-18T06:42:16.787Z,20.00
2023-07-18T06:44:17.090Z,20.10
2023-07-18T06:46:17.366Z,20.13
2023-07-18T06:48:17.660Z,20.13
2023-07-18T06:50:17.939Z,20.21
2023-07-18T06:52:18.241Z,20.31
2023-07-18T06:54:18.535Z,20.51
2023-07-18T06:56:18.791Z,20.59
2023-07-18T06:58:19.078Z,20.58
2023-07-18T07:00:19.345Z,20.59
2023-07-18T07:02:19.611Z,20.75
2023-07-18T07:04:19.988Z,20.81
2023-07-18T07:06:20.295Z,20.90
2023-07-18T07:08:20.594Z,20.88
2023-07-18T07:10:20.877Z,20.87
2023-07-18T07:12:34.400Z,20.88
2023-07-18T07:14:26.342Z,21.06
2023-07-18T07:16:26.682Z,21.17
2023-07-18T07:18:26.983Z,21.14
2023-07-18T07:20:27.277Z,21.15
2023-07-18T07:22:27.542Z,21.25
2023-07-18T07:24:27.811Z,21.33
2023-07-18T07:26:28.103Z,21.27
2023-07-18T07:28:28.402Z,21.27
2023-07-18T07:30:28.744Z,21.27
2023-07-18T07:32:29.023Z,21.33
2023-07-18T07:34:29.280Z,21.40
2023-07-18T07:36:29.562Z,21.45
2023-07-18T07:38:29.843Z,21.61
2023-07-18T07:40:31.325Z,21.70
2023-07-18T07:42:31.602Z,21.79
2023-07-18T07:44:31.868Z,21.91
2023-07-18T07:46:32.196Z,22.00
2023-07-18T07:48:32.480Z,22.18
2023-07-18T07:50:32.757Z,22.32
2023-07-18T07:52:33.045Z,22.38
2023-07-18T07:54:33.325Z,22.43
2023-07-18T07:56:33.664Z,22.48
2023-07-18T07:58:33.941Z,22.50
2023-07-18T08:00:34.237Z,22.53
2023-07-18T08:02:34.644Z,22.51
2023-07-18T08:04:35.111Z,22.51
2023-07-18T08:06:35.432Z,22.57
2023-07-18T08:08:35.744Z,22.54
2023-07-18T08:10:36.042Z,22.59
2023-07-18T08:12:36.344Z,22.63
2023-07-18T08:14:36.641Z,22.80
2023-07-18T08:16:36.941Z,22.93
2023-07-18T08:18:37.237Z,23.05
2023-07-18T08:20:37.539Z,23.13
2023-07-18T08:22:37.845Z,23.18
2023-07-18T08:24:38.153Z,23.23
2023-07-18T08:26:38.423Z,23.25
2023-07-18T08:28:38.725Z,23.36
2023-07-18T08:30:39.034Z,23.40
2023-07-18T08:32:39.361Z,23.44
2023-07-18T08:34:39.642Z,23.51
2023-07-18T08:36:39.968Z,23.61
2023-07-18T08:38:40.228Z,23.76
2023-07-18T08:40:40.583Z,23.81
2023-07-18T08:42:40.861Z,23.91
2023-07-18T08:44:41.119Z,23.93
2023-07-18T08:46:41.416Z,23.86
2023-07-18T08:48:41.690Z,23.87
2023-07-18T08:50:41.984Z,23.80
2023-07-18T08:52:42.278Z,23.81
2023-07-18T08:54:42.572Z,23.84
2023-07-18T08:56:42.906Z,23.80
2023-07-18T08:58:43.159Z,23.88
2023-07-18T09:00:43.457Z,23.93
2023-07-18T09:02:43.812Z,24.06
2023-07-18T09:04:44.202Z,24.10
2023-07-18T09:06:44.483Z,24.06
2023-07-18T09:08:44.836Z,24.14
2023-07-18T09:10:45.150Z,24.24
2023-07-18T09:12:45.448Z,24.38
2023-07-18T09:14:45.747Z,24.45
2023-07-18T09:16:46.114Z,24.48
2023-07-18T09:18:48.734Z,24.42
2023-07-18T09:20:50.441Z,24.47
2023-07-18T09:22:50.768Z,24.51
2023-07-18T09:24:51.078Z,24.53
2023-07-18T09:26:51.316Z,24.61
2023-07-18T09:28:51.662Z,24.63
2023-07-18T09:30:51.918Z,24.63
2023-07-18T09:32:52.209Z,24.69
2023-07-18T09:34:52.473Z,24.80
2023-07-18T09:36:52.771Z,24.91
2023-07-18T09:38:53.046Z,24.95
2023-07-18T09:40:58.265Z,25.13
2023-07-18T09:42:58.532Z,25.28
2023-07-18T09:45:04.441Z,25.47
2023-07-18T09:47:04.009Z,25.73
2023-07-18T09:49:04.443Z,25.96
2023-07-18T09:51:04.801Z,26.10
2023-07-18T09:53:05.093Z,26.41
2023-07-18T09:55:05.419Z,26.66
2023-07-18T09:57:05.714Z,26.89
2023-07-18T09:59:06.024Z,26.99
2023-07-18T10:01:06.360Z,27.11
2023-07-18T10:03:06.746Z,27.05
2023-07-18T10:05:07.030Z,26.99
2023-07-18T10:07:07.318Z,27.08
2023-07-18T10:09:07.624Z,27.39
2023-07-18T10:11:07.902Z,27.71
2023-07-18T10:13:08.171Z,27.85
2023-07-18T10:15:08.525Z,27.70
2023-07-18T10:17:09.020Z,27.60
2023-07-18T10:19:09.590Z,27.29
2023-07-18T10:21:09.837Z,27.27
2023-07-18T10:23:10.309Z,27.49
2023-07-18T10:25:10.599Z,27.71
2023-07-18T10:27:10.882Z,28.01
2023-07-18T10:29:11.131Z,28.19
2023-07-18T10:31:11.476Z,28.07
2023-07-18T10:33:11.827Z,27.87
2023-07-18T10:35:16.909Z,27.93
2023-07-18T10:37:17.293Z,27.71
2023-07-18T10:39:17.559Z,27.64
2023-07-18T10:41:17.939Z,27.71
2023-07-18T10:43:18.433Z,27.80
2023-07-18T10:45:18.702Z,27.95
2023-07-18T10:47:19.087Z,27.87
2023-07-18T10:49:19.444Z,27.85
2023-07-18T10:51:19.931Z,27.73
2023-07-18T10:53:20.468Z,27.60
2023-07-18T10:55:20.760Z,27.58
2023-07-18T10:57:21.029Z,27.68
2023-07-18T10:59:21.319Z,27.89
2023-07-18T11:01:21.905Z,28.12
2023-07-18T11:03:22.529Z,28.33
2023-07-18T11:05:22.869Z,28.15
2023-07-18T11:07:23.133Z,28.14
2023-07-18T11:09:23.428Z,28.17
2023-07-18T11:11:23.699Z,28.17
2023-07-18T11:13:23.984Z,28.19
2023-07-18T11:15:24.270Z,28.14
2023-07-18T11:17:24.582Z,28.14
2023-07-18T11:19:24.837Z,28.39
2023-07-18T11:21:25.220Z,28.67
2023-07-18T11:23:25.471Z,28.88
2023-07-18T11:25:25.724Z,29.04
2023-07-18T11:27:26.014Z,29.14
2023-07-18T11:29:26.302Z,29.44
2023-07-18T11:33:29.798Z,30.10
2023-07-18T11:35:30.083Z,30.10
2023-07-18T11:37:33.855Z,30.15
2023-07-18T11:39:35.548Z,29.82
2023-07-18T11:41:35.852Z,29.57
2023-07-18T11:43:36.117Z,29.59
2023-07-18T11:45:36.392Z,29.71
2023-07-18T11:47:36.781Z,29.88
2023-07-18T11:49:37.483Z,30.08
2023-07-18T11:51:37.985Z,29.97
2023-07-18T11:53:38.271Z,30.00
2023-07-18T11:55:38.587Z,30.23
2023-07-18T11:57:38.877Z,30.39
2023-07-18T11:59:39.214Z,30.24
2023-07-18T12:01:39.499Z,30.30
2023-07-18T12:03:39.910Z,30.15
2023-07-18T12:05:40.222Z,29.97
2023-07-18T12:07:40.501Z,30.16
2023-07-18T12:09:40.906Z,30.27
2023-07-18T12:11:41.165Z,30.03
2023-07-18T12:13:41.508Z,29.81
2023-07-18T12:15:41.816Z,29.73
2023-07-18T12:17:42.136Z,29.93
2023-07-18T12:19:42.507Z,30.23
2023-07-18T12:21:42.859Z,30.65
2023-07-18T12:23:43.163Z,30.81
2023-07-18T12:25:43.721Z,30.66
2023-07-18T12:27:43.968Z,30.51
2023-07-18T12:29:44.297Z,30.50
2023-07-18T12:31:44.687Z,30.46
2023-07-18T12:33:44.987Z,30.21
2023-07-18T12:35:45.271Z,29.82
2023-07-18T12:37:45.596Z,30.16
2023-07-18T12:39:45.947Z,30.53
2023-07-18T12:41:46.268Z,30.68
2023-07-18T12:43:46.614Z,30.97
2023-07-18T12:45:46.876Z,31.02
2023-07-18T12:47:47.228Z,31.15
2023-07-18T12:51:50.758Z,31.40
2023-07-18T12:53:51.020Z,31.09
2023-07-18T12:55:51.315Z,31.00
2023-07-18T12:57:51.684Z,30.94
2023-07-18T12:59:51.939Z,31.02
2023-07-18T13:01:52.296Z,31.36
2023-07-18T13:03:52.718Z,31.46
2023-07-18T13:05:53.073Z,31.21
2023-07-18T13:07:53.482Z,30.94
2023-07-18T13:09:53.730Z,30.97
2023-07-18T13:11:54.011Z,30.97
2023-07-18T13:13:54.318Z,31.34
2023-07-18T13:15:54.657Z,31.69
2023-07-18T13:17:54.941Z,32.03
2023-07-18T13:19:55.248Z,32.33
2023-07-18T13:21:55.511Z,32.52
2023-07-18T13:23:55.820Z,32.85
2023-07-18T13:25:56.124Z,33.02
2023-07-18T13:27:56.377Z,33.15
2023-07-18T13:29:56.760Z,33.15
2023-07-18T13:31:57.109Z,33.12
2023-07-18T13:33:57.425Z,32.70
2023-07-18T13:35:57.738Z,32.67
2023-07-18T13:37:58.029Z,32.74
2023-07-18T13:39:58.370Z,32.43
2023-07-18T13:41:58.646Z,32.09
2023-07-18T13:43:58.959Z,31.85
2023-07-18T13:45:59.327Z,31.85
2023-07-18T13:47:59.642Z,32.15
2023-07-18T13:49:59.935Z,32.74
2023-07-18T13:52:00.221Z,33.01
2023-07-18T13:54:00.502Z,33.22
2023-07-18T13:56:00.858Z,33.31
2023-07-18T13:58:07.722Z,32.93
2023-07-18T14:00:07.984Z,32.83
2023-07-18T14:02:08.344Z,32.75
2023-07-18T14:04:08.710Z,32.64
2023-07-18T14:06:08.998Z,33.05
2023-07-18T14:08:09.446Z,33.36
2023-07-18T14:10:09.832Z,33.62
2023-07-18T14:12:10.121Z,33.50
2023-07-18T14:14:10.430Z,33.30
2023-07-18T14:16:10.734Z,33.50
2023-07-18T14:18:11.129Z,33.83
2023-07-18T14:20:11.419Z,34.05
2023-07-18T14:22:11.739Z,34.40
2023-07-18T14:24:12.078Z,34.58
2023-07-18T14:26:12.384Z,34.58
2023-07-18T14:28:12.773Z,33.62
2023-07-18T14:30:14.759Z,33.55
2023-07-18T14:32:15.120Z,33.74
2023-07-18T14:34:15.412Z,34.03
2023-07-18T14:36:15.724Z,33.84
2023-07-18T14:38:16.080Z,33.89
2023-07-18T14:40:16.370Z,34.21
2023-07-18T14:42:16.665Z,34.70
2023-07-18T14:44:16.945Z,34.83
2023-07-18T14:46:17.498Z,34.77
2023-07-18T14:48:18.038Z,35.04
2023-07-18T14:50:18.351Z,35.42
2023-07-18T14:52:18.640Z,35.85
2023-07-18T14:54:18.947Z,35.80
2023-07-18T14:56:19.571Z,35.79
2023-07-18T14:58:20.086Z,36.14
2023-07-18T15:00:20.417Z,36.24
2023-07-18T15:02:20.702Z,36.00
2023-07-18T15:04:21.094Z,35.89
2023-07-18T15:06:22.542Z,35.90
2023-07-18T15:08:22.870Z,35.88
2023-07-18T15:10:25.296Z,35.63
2023-07-18T15:12:25.666Z,35.12
2023-07-18T15:14:25.960Z,34.73
2023-07-18T15:16:26.334Z,34.42
2023-07-18T15:18:26.678Z,34.02
2023-07-18T15:20:26.957Z,33.68
2023-07-18T15:22:27.373Z,33.45
2023-07-18T15:24:27.615Z,33.11
2023-07-18T15:26:27.905Z,33.22
2023-07-18T15:28:28.241Z,33.45
2023-07-18T15:30:28.521Z,33.52
2023-07-18T15:32:29.767Z,33.65
2023-07-18T15:34:31.333Z,33.62
2023-07-18T15:36:31.644Z,33.15
2023-07-18T15:38:36.922Z,32.83
2023-07-18T15:40:37.182Z,32.83
2023-07-18T15:42:37.464Z,33.30
2023-07-18T15:44:37.781Z,33.61
2023-07-18T15:46:38.156Z,33.59
2023-07-18T15:48:38.455Z,33.43
2023-07-18T15:50:38.747Z,33.67
2023-07-18T15:52:39.036Z,33.86
2023-07-18T15:54:39.359Z,34.29
2023-07-18T15:56:39.608Z,34.71
2023-07-18T15:58:39.874Z,35.05
2023-07-18T16:00:40.183Z,35.14
2023-07-18T16:02:40.477Z,35.12
2023-07-18T16:04:40.804Z,35.34
2023-07-18T16:06:41.083Z,35.60
2023-07-18T16:08:41.410Z,35.61
2023-07-18T16:10:41.700Z,35.71
2023-07-18T16:12:41.992Z,35.71
2023-07-18T16:14:42.269Z,35.95
2023-07-18T16:16:42.564Z,36.45
2023-07-18T16:18:45.273Z,37.23
2023-07-18T16:20:45.569Z,37.77
2023-07-18T16:22:45.960Z,37.97
2023-07-18T16:24:46.261Z,38.62
2023-07-18T16:26:46.558Z,38.69
2023-07-18T16:28:46.840Z,39.03
2023-07-18T16:30:47.118Z,39.11
2023-07-18T16:32:47.867Z,38.99
2023-07-18T16:34:48.175Z,39.19
2023-07-18T16:36:48.591Z,39.19
2023-07-18T16:38:48.985Z,39.41
2023-07-18T16:40:49.525Z,39.72
2023-07-18T16:43:31.498Z,0.00
2023-07-18T16:45:31.721Z,0.00
2023-07-18T16:47:31.995Z,0.00
2023-07-18T16:49:32.239Z,0.00
2023-07-18T16:51:32.508Z,0.00
2023-07-18T16:53:32.796Z,0.00
2023-07-18T16:55:33.057Z,0.00
2023-07-18T16:57:33.309Z,0.00
2023-07-18T16:59:33.625Z,0.00
2023-07-18T17:01:33.949Z,0.00
2023-07-18T17:03:34.262Z,0.00
2023-07-18T17:05:34.508Z,0.00
2023-07-18T17:07:34.761Z,0.00
2023-07-18T17:09:35.306Z,0.00
2023-07-18T17:11:35.570Z,0.00
2023-07-18T17:13:35.877Z,0.00
2023-07-18T17:15:36.113Z,0.00
2023-07-18T17:17:36.401Z,0.00
2023-07-18T17:19:48.303Z,0.00
2023-07-18T17:21:42.193Z,0.00
2023-07-18T17:23:42.419Z,0.00
2023-07-18T17:25:42.688Z,0.00
2023-07-18T17:27:42.981Z,0.00
2023-07-18T17:29:43.465Z,0.00
2023-07-18T17:31:43.755Z,0.00
2023-07-18T17:33:43.973Z,0.00
2023-07-18T17:35:44.265Z,0.00
2023-07-18T17:37:44.488Z,0.00
2023-07-18T17:39:44.793Z,0.00
2023-07-18T17:41:45.010Z,0.00
2023-07-18T17:43:45.292Z,0.00
2023-07-18T17:45:45.554Z,0.00
2023-07-18T17:47:45.906Z,0.00
2023-07-18T17:49:46.157Z,0.00
2023-07-18T17:51:46.429Z,0.00
2023-07-18T17:53:46.677Z,0.00
2023-07-18T17:55:46.945Z,0.00
2023-07-18T17:57:47.188Z,0.00
2023-07-18T17:59:47.527Z,0.00
2023-07-18T18:01:47.807Z,0.00
2023-07-18T18:03:48.155Z,0.00
2023-07-18T18:05:48.512Z,0.00
2023-07-18T18:07:48.760Z,0.00
2023-07-18T18:09:49.005Z,0.00
2023-07-18T18:11:49.258Z,0.00
2023-07-18T18:13:49.537Z,0.00
2023-07-18T18:16:06.268Z,0.00
2023-07-18T18:17:54.945Z,0.00
2023-07-18T18:19:55.223Z,0.00
2023-07-18T18:21:55.547Z,0.00
2023-07-18T18:23:55.800Z,0.00
2023-07-18T18:25:56.021Z,0.00
2023-07-18T18:27:56.319Z,0.00
2023-07-18T18:29:56.595Z,0.00
2023-07-18T18:31:56.871Z,0.00
2023-07-18T18:33:58.832Z,0.00
2023-07-18T18:36:00.291Z,0.00
2023-07-18T18:38:00.578Z,0.00
2023-07-18T18:40:00.821Z,0.00
2023-07-18T18:42:01.043Z,0.00
2023-07-18T18:44:01.296Z,0.00
2023-07-18T18:46:01.632Z,0.00
2023-07-18T18:48:02.028Z,0.00
2023-07-18T18:50:02.333Z,0.00
2023-07-18T18:52:07.456Z,0.00
2023-07-18T18:54:07.741Z,0.00
2023-07-18T18:56:08.000Z,0.00
2023-07-18T18:58:08.344Z,0.00
2023-07-18T19:00:08.556Z,0.00
2023-07-18T19:02:08.840Z,0.00
2023-07-18T19:04:09.128Z,0.00
2023-07-18T19:06:09.361Z,0.00
2023-07-18T19:08:14.527Z,0.00
2023-07-18T19:10:14.876Z,0.00
2023-07-18T19:12:15.195Z,0.00
2023-07-18T19:14:15.888Z,0.00
2023-07-18T19:16:25.132Z,0.00
2023-07-18T19:18:21.376Z,0.00
2023-07-18T19:20:21.631Z,0.00
2023-07-18T19:22:21.947Z,0.00
2023-07-18T19:24:22.237Z,0.00
2023-07-18T19:26:22.527Z,0.00
2023-07-18T19:28:22.804Z,0.00
2023-07-18T19:30:23.091Z,0.00
2023-07-18T19:32:23.514Z,0.00
2023-07-18T19:34:23.750Z,0.00
2023-07-18T19:36:24.032Z,0.00
2023-07-18T19:38:24.318Z,0.00
2023-07-18T19:40:24.635Z,0.00
2023-07-18T19:42:24.925Z,0.00
2023-07-18T19:44:25.238Z,0.00
2023-07-18T19:46:25.511Z,0.00
2023-07-18T19:48:25.812Z,0.00
2023-07-18T19:50:26.164Z,0.00
2023-07-18T19:52:26.463Z,0.00
2023-07-18T19:54:26.706Z,0.00
2023-07-18T19:56:27.006Z,0.00
2023-07-18T19:58:27.223Z,0.00
2023-07-18T20:00:27.479Z,0.00
2023-07-18T20:02:28.081Z,0.00
2023-07-18T20:04:28.500Z,0.00
2023-07-18T20:06:28.807Z,0.00
2023-07-18T20:08:29.060Z,0.00
2023-07-18T20:10:29.307Z,0.00
2023-07-18T20:12:29.665Z,0.00
2023-07-18T20:14:29.891Z,0.00
2023-07-18T20:16:30.526Z,0.00
2023-07-18T20:18:31.056Z,0.00
2023-07-18T20:20:31.252Z,0.00
2023-07-18T20:22:31.537Z,0.00
2023-07-18T20:24:31.787Z,0.00
2023-07-18T20:26:34.893Z,0.00
2023-07-18T20:28:35.853Z,0.00
2023-07-18T20:30:36.129Z,0.00
2023-07-18T20:32:36.465Z,0.00
2023-07-18T20:34:37.149Z,0.00
2023-07-18T21:23:18.959Z,24.57
2023-07-18T21:25:24.018Z,24.42
2023-07-18T21:27:24.285Z,24.32
2023-07-18T21:29:24.564Z,24.24
2023-07-18T21:31:24.900Z,24.11
2023-07-18T21:33:25.159Z,23.99
2023-07-18T21:35:25.491Z,23.93
2023-07-18T21:37:25.721Z,23.86
2023-07-18T21:39:26.045Z,23.80
2023-07-18T21:41:26.330Z,23.73
2023-07-18T21:43:26.596Z,23.71
2023-07-18T21:45:26.901Z,23.68
2023-07-18T21:47:27.178Z,23.63
2023-07-18T21:49:27.516Z,23.63
2023-07-18T21:51:27.865Z,23.62
2023-07-18T21:53:28.169Z,23.59
2023-07-18T21:55:28.461Z,23.54
2023-07-18T21:57:28.784Z,23.50
2023-07-18T21:59:29.052Z,23.46
2023-07-18T22:01:29.367Z,23.43
2023-07-18T22:03:29.632Z,23.41
2023-07-18T22:05:29.903Z,23.36
2023-07-18T22:07:30.222Z,23.36
2023-07-18T22:09:30.478Z,23.36
2023-07-18T22:11:30.824Z,23.40
2023-07-18T22:13:31.138Z,23.40
2023-07-18T22:15:31.420Z,23.44
2023-07-18T22:17:31.714Z,23.44
2023-07-18T22:19:31.971Z,23.43
2023-07-18T22:21:32.259Z,23.40
2023-07-18T22:23:32.575Z,23.41
2023-07-18T22:25:32.922Z,23.40
2023-07-18T22:27:33.200Z,23.43
2023-07-18T22:29:33.448Z,23.39
2023-07-18T22:31:33.951Z,23.37
2023-07-18T22:33:34.372Z,23.32
2023-07-18T22:35:34.600Z,23.25
2023-07-18T22:37:34.893Z,23.08
2023-07-18T22:39:37.841Z,22.93
2023-07-18T22:41:39.364Z,22.76
2023-07-18T22:43:39.658Z,22.68
2023-07-18T22:45:39.960Z,22.65
2023-07-18T22:47:40.266Z,22.66
2023-07-18T22:49:40.588Z,22.65
2023-07-18T22:51:40.883Z,22.57
2023-07-18T22:53:41.175Z,22.54
2023-07-18T22:55:41.437Z,22.55
2023-07-18T22:57:41.802Z,22.51
2023-07-18T22:59:42.075Z,22.53
2023-07-18T23:01:42.370Z,22.45
2023-07-18T23:03:42.679Z,22.48
2023-07-18T23:05:42.970Z,22.45
2023-07-18T23:07:43.231Z,22.44
2023-07-18T23:09:43.533Z,22.45
2023-07-18T23:11:43.817Z,22.39
2023-07-18T23:13:44.113Z,22.30
2023-07-18T23:15:44.407Z,22.25
2023-07-18T23:17:44.693Z,22.18
2023-07-18T23:19:44.974Z,22.13
2023-07-18T23:21:45.251Z,22.07
2023-07-18T23:23:45.541Z,21.85
2023-07-18T23:25:45.813Z,21.67
2023-07-18T23:27:46.069Z,21.52
2023-07-18T23:29:46.370Z,21.39
2023-07-18T23:31:46.667Z,21.33
2023-07-18T23:33:46.995Z,21.29
2023-07-18T23:35:47.362Z,21.32
2023-07-18T23:37:47.634Z,21.37
2023-07-18T23:41:54.527Z,21.46
2023-07-18T23:43:54.892Z,21.39
2023-07-18T23:45:55.253Z,21.37
2023-07-18T23:47:55.610Z,21.42
2023-07-18T23:49:55.902Z,21.40
2023-07-18T23:51:56.157Z,21.42
2023-07-18T23:53:56.445Z,21.39
2023-07-18T23:55:56.758Z,21.37
2023-07-18T23:57:57.072Z,21.39
2023-07-18T23:59:57.329Z,21.37
